Time;durP1;ratioP1;P1;durP2;ratioP2;P2;SDS_P1;SDS_P2;PMS_P1;PMS_P2;Temp;Humidity;BMP_temperature;BMP_pressure;BME280_temperature;BME280_humidity;BME280_pressure;Samples;Min_cycle;Max_cycle;Signal;HPM_P1;HPM_P2
2022/02/01 00:02:30;;;;;;;4.10;1.30;;;4.00;99.90;;;;;;5090850;28;20374;-54
2022/02/01 00:05:15;;;;;;;6.57;2.00;;;5.70;99.90;;;;;;5090711;28;20389;-54
2022/02/01 00:07:51;;;;;;;7.00;1.70;;;4.20;99.90;;;;;;5087256;28;20455;-54
2022/02/01 00:10:23;;;;;;;6.97;1.40;;;3.90;99.90;;;;;;5091115;28;20468;-54
2022/02/01 00:37:03;;;;;;;5.60;1.30;;;5.30;99.90;;;;;;5090788;28;20729;-56
2022/02/01 00:39:31;;;;;;;4.88;1.60;;;3.90;99.90;;;;;;5086065;28;20419;-56
2022/02/01 00:41:57;;;;;;;5.55;1.40;;;4.40;99.90;;;;;;5079851;28;20384;-54
2022/02/01 00:44:24;;;;;;;4.30;1.10;;;3.50;99.90;;;;;;5070786;28;20379;-54
2022/02/01 00:46:49;;;;;;;5.32;1.20;;;3.40;99.90;;;;;;5069587;28;20383;-54
2022/02/01 00:49:15;;;;;;;5.28;1.10;;;3.20;99.90;;;;;;5070148;28;20463;-54
2022/02/01 00:51:41;;;;;;;5.57;1.30;;;3.50;99.90;;;;;;5069578;28;20372;-54
2022/02/01 00:54:07;;;;;;;4.90;1.40;;;3.00;99.90;;;;;;5069826;28;20742;-53
2022/02/01 00:56:32;;;;;;;7.82;1.77;;;2.90;99.90;;;;;;5069509;28;20375;-55
2022/02/01 00:58:58;;;;;;;5.50;1.53;;;3.90;99.90;;;;;;5069966;28;20380;-54
2022/02/01 01:01:24;;;;;;;7.70;2.05;;;2.90;99.90;;;;;;5070019;28;20376;-53
2022/02/01 01:03:49;;;;;;;10.87;2.20;;;3.40;99.90;;;;;;5069219;28;20391;-53
2022/02/01 01:06:16;;;;;;;6.17;1.90;;;3.10;99.90;;;;;;5069807;28;20372;-53
2022/02/01 01:08:44;;;;;;;6.53;2.20;;;3.10;99.90;;;;;;5069007;28;20379;-53
2022/02/01 01:11:11;;;;;;;8.00;2.10;;;4.50;99.90;;;;;;5069601;28;20387;-54
2022/02/01 01:16:23;;;;;;;7.63;2.00;;;3.30;99.90;;;;;;5069773;28;20434;-54
2022/02/01 01:54:00;;;;;;;7.97;2.13;;;3.70;99.90;;;;;;5069099;28;20366;-54
2022/02/01 01:56:25;;;;;;;9.10;2.60;;;3.70;99.90;;;;;;5069262;28;20384;-54
2022/02/01 01:58:51;;;;;;;7.40;2.00;;;3.90;99.90;;;;;;5068335;28;20374;-54
2022/02/01 02:01:17;;;;;;;9.50;1.93;;;3.80;99.90;;;;;;5101940;28;20909;-54
2022/02/01 02:03:47;;;;;;;7.80;1.60;;;3.70;99.90;;;;;;5068198;28;20395;-54
2022/02/01 02:06:16;;;;;;;6.72;2.00;;;3.90;99.90;;;;;;5069222;28;20415;-54
2022/02/01 02:08:47;;;;;;;6.90;1.50;;;5.50;99.90;;;;;;5068373;28;20468;-54
2022/02/01 02:11:41;;;;;;;7.35;1.88;;;3.90;99.90;;;;;;5069331;28;20388;-54
2022/02/01 02:14:18;;;;;;;8.85;2.10;;;3.80;99.90;;;;;;5069094;28;20375;-54
2022/02/01 02:16:50;;;;;;;7.47;1.80;;;3.90;99.90;;;;;;5068091;28;20403;-54
2022/02/01 02:19:16;;;;;;;6.00;1.40;;;3.80;99.90;;;;;;5073158;28;20895;-54
2022/02/01 02:21:47;;;;;;;7.57;2.00;;;3.70;99.90;;;;;;5072173;28;20379;-54
2022/02/01 02:24:13;;;;;;;8.05;1.90;;;3.70;99.90;;;;;;5073060;28;20426;-54
2022/02/01 02:26:40;;;;;;;7.47;2.00;;;3.70;99.90;;;;;;5072010;28;20411;-54
2022/02/01 02:29:06;;;;;;;7.15;1.90;;;3.60;99.90;;;;;;5073775;28;20407;-54
2022/02/01 02:31:33;;;;;;;7.18;2.10;;;3.70;99.90;;;;;;5079289;28;20386;-54
2022/02/01 02:34:08;;;;;;;10.35;2.13;;;4.50;99.90;;;;;;5082798;28;20394;-54
2022/02/01 02:36:39;;;;;;;9.20;1.92;;;3.80;99.90;;;;;;5071898;28;20386;-55
2022/02/01 02:39:13;;;;;;;10.07;2.20;;;3.70;99.90;;;;;;5072665;28;20485;-54
2022/02/01 02:41:50;;;;;;;8.13;1.60;;;3.80;99.90;;;;;;5071834;28;20376;-54
2022/02/01 02:47:06;;;;;;;7.68;2.00;;;3.80;99.90;;;;;;5073269;28;20449;-55
2022/02/01 02:49:32;;;;;;;9.40;2.10;;;3.80;99.90;;;;;;5072077;28;20380;-55
2022/02/01 02:51:58;;;;;;;8.13;1.60;;;4.70;99.90;;;;;;5071850;28;20475;-54
2022/02/01 02:54:25;;;;;;;6.77;2.20;;;5.10;99.90;;;;;;5072382;28;20410;-54
2022/02/01 02:56:54;;;;;;;10.00;2.20;;;3.80;99.90;;;;;;5071182;28;20372;-54
2022/02/01 02:59:22;;;;;;;10.32;2.63;;;3.90;99.90;;;;;;5072097;28;20380;-54
2022/02/01 03:01:48;;;;;;;10.10;2.75;;;3.80;99.90;;;;;;5071397;28;20386;-54
2022/02/01 03:04:20;;;;;;;8.23;2.22;;;3.80;99.90;;;;;;5072262;28;20391;-54
2022/02/01 03:06:46;;;;;;;8.90;2.28;;;3.90;99.90;;;;;;5071128;28;20384;-56
2022/02/01 03:09:13;;;;;;;14.35;2.60;;;3.80;99.90;;;;;;5072092;28;20459;-53
2022/02/01 03:11:40;;;;;;;11.98;2.78;;;3.80;99.90;;;;;;5071538;28;20379;-53
2022/02/01 03:14:18;;;;;;;11.40;3.05;;;3.70;99.90;;;;;;5071555;28;20861;-53
2022/02/01 03:16:58;;;;;;;10.15;2.90;;;5.60;99.90;;;;;;5071096;28;20461;-53
2022/02/01 03:22:08;;;;;;;10.98;2.90;;;3.70;99.90;;;;;;5071866;28;20776;-53
2022/02/01 03:24:34;;;;;;;16.80;2.35;;;3.80;99.90;;;;;;5071731;28;20379;-54
2022/02/01 03:27:00;;;;;;;14.80;2.50;;;3.70;99.90;;;;;;5071708;28;20757;-53
2022/02/01 03:29:25;;;;;;;13.90;2.28;;;3.60;99.90;;;;;;5070910;28;20758;-53
2022/02/01 03:31:52;;;;;;;14.98;3.10;;;5.50;99.90;;;;;;5071147;28;20737;-53
2022/02/01 03:34:17;;;;;;;13.05;3.10;;;3.70;99.90;;;;;;5071700;28;20498;-53
2022/02/01 03:36:43;;;;;;;13.10;2.42;;;5.50;99.90;;;;;;5070997;28;20471;-53
2022/02/01 03:39:09;;;;;;;12.87;2.93;;;3.70;99.90;;;;;;5071834;28;20393;-53
2022/02/01 03:41:34;;;;;;;11.07;2.70;;;3.70;99.90;;;;;;5071255;28;20540;-54
2022/02/01 03:44:03;;;;;;;10.33;2.60;;;3.70;99.90;;;;;;5071122;28;20379;-54
2022/02/01 03:46:29;;;;;;;12.05;2.20;;;3.70;99.90;;;;;;5071799;28;20394;-53
2022/02/01 03:48:54;;;;;;;13.07;2.90;;;3.70;99.90;;;;;;5070898;28;20462;-53
2022/02/01 03:51:20;;;;;;;15.77;2.90;;;3.70;99.90;;;;;;5071204;28;20387;-53
2022/02/01 03:53:45;;;;;;;17.58;3.38;;;3.80;99.90;;;;;;5071015;28;20379;-54
2022/02/01 03:56:11;;;;;;;15.13;3.20;;;3.80;99.90;;;;;;5071355;28;20903;-53
2022/02/01 03:58:37;;;;;;;12.25;3.20;;;5.60;99.90;;;;;;5070997;28;20408;-57
2022/02/01 04:01:02;;;;;;;11.50;2.90;;;3.80;99.90;;;;;;5071053;28;20914;-56
2022/02/01 04:03:28;;;;;;;14.27;2.93;;;3.90;99.90;;;;;;5071683;28;20441;-56
2022/02/01 04:05:54;;;;;;;11.57;2.65;;;3.80;99.90;;;;;;5070442;28;20892;-53
2022/02/01 04:08:21;;;;;;;10.20;2.70;;;4.90;99.90;;;;;;5070436;28;20380;-53
2022/02/01 04:10:49;;;;;;;11.50;2.00;;;3.70;99.90;;;;;;5102680;28;20883;-53
2022/02/01 04:13:15;;;;;;;12.93;2.00;;;4.30;99.90;;;;;;5103509;28;20741;-55
2022/02/01 04:15:42;;;;;;;15.93;2.88;;;3.80;99.90;;;;;;5070022;28;20510;-57
2022/02/01 04:18:08;;;;;;;9.68;3.03;;;3.70;99.90;;;;;;5070306;28;20479;-56
2022/02/01 04:20:34;;;;;;;13.82;2.15;;;3.80;99.90;;;;;;5075350;28;20897;-56
2022/02/01 04:22:59;;;;;;;13.10;2.50;;;3.70;99.90;;;;;;5090857;28;20401;-53
2022/02/01 04:25:25;;;;;;;16.90;3.00;;;3.60;99.90;;;;;;5072785;28;20415;-53
2022/02/01 04:27:51;;;;;;;9.60;2.13;;;3.50;99.90;;;;;;5075974;28;20849;-54
2022/02/01 04:30:18;;;;;;;15.05;2.65;;;3.70;99.90;;;;;;5090322;28;20385;-53
2022/02/01 04:32:54;;;;;;;6.88;1.85;;;3.80;99.90;;;;;;5089803;28;20383;-53
2022/02/01 04:35:25;;;;;;;12.38;1.92;;;3.70;99.90;;;;;;5090512;28;20514;-53
2022/02/01 04:37:54;;;;;;;9.95;1.80;;;3.70;99.90;;;;;;5090007;28;20381;-53
2022/02/01 04:40:25;;;;;;;13.00;2.67;;;3.70;99.90;;;;;;5089859;28;20473;-53
2022/02/01 04:42:52;;;;;;;11.87;2.03;;;3.70;99.90;;;;;;5089924;28;20424;-56
2022/02/01 04:45:21;;;;;;;11.20;3.40;;;3.70;99.90;;;;;;5090479;28;20413;-53
2022/02/01 04:47:48;;;;;;;9.85;1.98;;;3.70;99.90;;;;;;5089614;28;20390;-56
2022/02/01 04:50:33;;;;;;;8.73;1.80;;;3.70;99.90;;;;;;5090393;28;20405;-56
2022/02/01 04:53:00;;;;;;;12.17;2.00;;;3.70;99.90;;;;;;5089707;28;20374;-55
2022/02/01 04:58:04;;;;;;;14.30;2.20;;;3.80;99.90;;;;;;5090332;28;20386;-55
2022/02/01 05:00:31;;;;;;;10.43;2.00;;;3.70;99.90;;;;;;5090452;28;20382;-55
2022/02/01 05:02:59;;;;;;;17.65;2.97;;;3.80;99.90;;;;;;5089216;28;20687;-55
2022/02/01 05:05:31;;;;;;;14.05;2.50;;;3.90;99.90;;;;;;5090084;28;20390;-55
2022/02/01 05:08:03;;;;;;;9.73;2.53;;;3.80;99.90;;;;;;5089359;28;20374;-55
2022/02/01 05:10:31;;;;;;;9.17;1.90;;;3.70;99.90;;;;;;5090150;28;20374;-55
2022/02/01 05:13:13;;;;;;;8.90;1.50;;;3.60;99.90;;;;;;5089182;28;20735;-55
2022/02/01 05:15:40;;;;;;;8.18;1.33;;;3.50;99.90;;;;;;5089092;28;20516;-55
2022/02/01 05:18:06;;;;;;;8.80;2.40;;;3.40;99.90;;;;;;5089402;28;20763;-53
2022/02/01 05:20:51;;;;;;;10.80;1.90;;;3.40;99.90;;;;;;5089558;28;20382;-53
2022/02/01 05:23:20;;;;;;;9.55;1.80;;;3.50;99.90;;;;;;5087732;28;20382;-55
2022/02/01 05:25:46;;;;;;;8.85;1.42;;;3.50;99.90;;;;;;5088397;28;20949;-55
2022/02/01 05:28:11;;;;;;;12.30;2.23;;;5.40;99.90;;;;;;5089075;28;20519;-55
2022/02/01 05:30:37;;;;;;;8.75;2.00;;;3.50;99.90;;;;;;5089173;28;20847;-56
2022/02/01 05:33:03;;;;;;;14.38;1.70;;;3.50;99.90;;;;;;5088690;28;20375;-55
2022/02/01 05:35:30;;;;;;;9.73;2.03;;;3.50;99.90;;;;;;5084949;28;20440;-55
2022/02/01 05:37:56;;;;;;;9.77;1.92;;;3.60;99.90;;;;;;5088668;28;20382;-55
2022/02/01 05:40:22;;;;;;;13.40;2.60;;;3.70;99.90;;;;;;5088932;28;20479;-55
2022/02/01 05:43:11;;;;;;;11.40;2.03;;;3.70;99.90;;;;;;5088310;28;20401;-56
2022/02/01 05:45:40;;;;;;;11.23;2.03;;;3.80;99.90;;;;;;5087941;28;20398;-56
2022/02/01 05:48:09;;;;;;;10.98;2.20;;;3.50;99.90;;;;;;5097966;28;20382;-56
2022/02/01 05:50:35;;;;;;;11.00;2.00;;;3.50;99.90;;;;;;5090387;28;20390;-55
2022/02/01 05:53:00;;;;;;;13.97;2.50;;;3.70;99.90;;;;;;5087957;28;20447;-56
2022/02/01 05:55:26;;;;;;;6.60;1.70;;;4.10;99.90;;;;;;5092254;28;20489;-55
2022/02/01 05:57:53;;;;;;;15.45;2.50;;;4.70;99.90;;;;;;5081857;28;20410;-55
2022/02/01 06:00:20;;;;;;;14.95;2.97;;;3.30;99.90;;;;;;5085341;28;20427;-55
2022/02/01 06:02:46;;;;;;;9.13;1.83;;;3.40;99.90;;;;;;5093249;28;20384;-56
2022/02/01 06:05:13;;;;;;;8.38;2.17;;;3.30;99.90;;;;;;5100736;28;20386;-53
2022/02/01 06:07:39;;;;;;;11.10;2.40;;;3.20;99.90;;;;;;5089688;28;20480;-55
2022/02/01 06:10:05;;;;;;;9.33;1.70;;;3.10;99.90;;;;;;5082093;28;20481;-53
2022/02/01 06:12:45;;;;;;;17.80;2.33;;;3.20;99.90;;;;;;5095644;28;20716;-54
2022/02/01 06:15:12;;;;;;;13.10;2.70;;;3.20;99.90;;;;;;5102098;28;20417;-55
2022/02/01 06:17:38;;;;;;;13.43;2.30;;;3.20;99.90;;;;;;5088768;28;20878;-54
2022/02/01 06:20:06;;;;;;;6.80;1.85;;;3.40;99.90;;;;;;5103737;28;20388;-53
2022/02/01 06:22:32;;;;;;;9.77;2.05;;;3.00;99.90;;;;;;5092016;28;20486;-54
2022/02/01 06:24:58;;;;;;;12.13;2.30;;;4.20;99.90;;;;;;5089700;28;21069;-53
2022/02/01 06:27:25;;;;;;;11.60;2.40;;;3.00;99.90;;;;;;5086900;28;20386;-53
2022/02/01 06:29:50;;;;;;;13.60;2.20;;;3.00;99.90;;;;;;5088193;28;20394;-53
2022/02/01 06:32:16;;;;;;;11.63;1.88;;;3.00;99.90;;;;;;5089306;28;20381;-55
2022/02/01 06:34:42;;;;;;;14.45;2.60;;;3.00;99.90;;;;;;5094825;28;20907;-54
2022/02/01 06:37:08;;;;;;;10.77;2.10;;;3.30;99.90;;;;;;5080007;28;20414;-53
2022/02/01 06:39:34;;;;;;;10.77;2.60;;;3.40;99.90;;;;;;5068649;28;20388;-54
2022/02/01 06:41:59;;;;;;;14.60;2.50;;;3.00;99.90;;;;;;5067742;28;20375;-54
2022/02/01 06:44:25;;;;;;;13.27;2.42;;;3.00;99.90;;;;;;5095160;28;20384;-54
2022/02/01 06:46:52;;;;;;;13.68;2.20;;;4.70;99.90;;;;;;5108085;28;20943;-55
2022/02/01 06:49:18;;;;;;;14.73;2.30;;;3.00;99.90;;;;;;5108744;28;20377;-54
2022/02/01 06:51:43;;;;;;;13.97;2.60;;;3.00;99.90;;;;;;5108230;28;20392;-55
2022/02/01 06:54:09;;;;;;;9.73;2.22;;;3.00;99.90;;;;;;5109266;28;20484;-54
2022/02/01 06:56:36;;;;;;;8.27;2.15;;;2.90;99.90;;;;;;5108051;28;20377;-54
2022/02/01 06:59:04;;;;;;;11.70;1.70;;;3.00;99.90;;;;;;5108255;28;20873;-55
2022/02/01 07:01:31;;;;;;;11.00;1.85;;;3.00;99.90;;;;;;5108885;28;20396;-55
2022/02/01 07:03:57;;;;;;;12.73;2.30;;;4.40;99.90;;;;;;5100134;28;20425;-54
2022/02/01 07:06:24;;;;;;;16.25;2.95;;;4.40;99.90;;;;;;5087291;28;20901;-54
2022/02/01 07:08:50;;;;;;;14.32;2.20;;;3.00;99.90;;;;;;5090531;28;20875;-55
2022/02/01 07:11:17;;;;;;;11.80;2.35;;;3.00;99.90;;;;;;5092358;28;20482;-54
2022/02/01 07:13:43;;;;;;;13.20;2.78;;;3.00;99.90;;;;;;5091402;28;20417;-55
2022/02/01 07:16:09;;;;;;;14.50;2.70;;;3.10;99.90;;;;;;5091682;28;20757;-55
2022/02/01 07:18:35;;;;;;;13.07;2.38;;;3.00;99.90;;;;;;5092211;28;20451;-55
2022/02/01 07:21:01;;;;;;;13.32;2.13;;;3.00;99.90;;;;;;5091070;28;20520;-55
2022/02/01 07:23:27;;;;;;;9.77;2.60;;;3.00;99.90;;;;;;5092028;28;20795;-55
2022/02/01 07:25:55;;;;;;;12.35;2.70;;;2.90;99.90;;;;;;5083110;28;20474;-55
2022/02/01 07:28:23;;;;;;;10.98;2.20;;;2.90;99.90;;;;;;5082573;28;20411;-54
2022/02/01 07:30:49;;;;;;;10.88;2.17;;;2.90;99.90;;;;;;5081086;28;20465;-55
2022/02/01 07:33:15;;;;;;;9.20;2.17;;;2.90;99.90;;;;;;5090995;28;20477;-55
2022/02/01 07:35:41;;;;;;;11.07;2.50;;;3.00;99.90;;;;;;5089382;28;20406;-55
2022/02/01 07:38:08;;;;;;;10.82;2.72;;;2.90;99.90;;;;;;5090186;28;20469;-54
2022/02/01 07:40:35;;;;;;;11.25;2.10;;;2.90;99.90;;;;;;5091498;28;20469;-54
2022/02/01 07:43:01;;;;;;;8.20;2.30;;;2.80;99.90;;;;;;5089357;28;21026;-55
2022/02/01 07:45:29;;;;;;;11.52;2.42;;;2.90;99.90;;;;;;5091598;28;20459;-54
2022/02/01 07:47:59;;;;;;;12.07;1.80;;;3.00;99.90;;;;;;5089999;28;20390;-55
2022/02/01 07:50:26;;;;;;;9.38;1.73;;;3.00;99.90;;;;;;5084298;28;20768;-55
2022/02/01 07:52:52;;;;;;;11.23;2.10;;;3.20;99.90;;;;;;5074376;28;20837;-55
2022/02/01 07:55:18;;;;;;;11.27;2.58;;;3.10;99.90;;;;;;5071378;28;20410;-55
2022/02/01 07:57:43;;;;;;;6.10;1.57;;;3.10;99.90;;;;;;5070518;28;20786;-55
2022/02/01 08:00:10;;;;;;;10.17;1.97;;;3.30;99.90;;;;;;5080463;28;20914;-55
2022/02/01 08:02:36;;;;;;;7.32;2.10;;;3.50;99.90;;;;;;5073426;28;20380;-55
2022/02/01 08:05:03;;;;;;;11.07;2.20;;;3.50;99.90;;;;;;5069504;28;20383;-55
2022/02/01 08:07:28;;;;;;;11.25;2.28;;;3.40;99.90;;;;;;5077767;28;20457;-55
2022/02/01 08:10:00;;;;;;;12.97;2.83;;;3.30;99.90;;;;;;5088154;28;20859;-55
2022/02/01 08:20:54;;;;;;;9.27;2.10;;;3.30;99.90;;;;;;5076000;28;20421;-55
2022/02/01 08:23:20;;;;;;;13.20;2.30;;;3.30;99.90;;;;;;5091161;28;20420;-54
2022/02/01 08:25:46;;;;;;;10.73;2.22;;;3.30;99.90;;;;;;5090227;28;20425;-55
2022/02/01 08:28:12;;;;;;;9.77;2.40;;;5.00;99.90;;;;;;5089817;28;20391;-54
2022/02/01 08:30:37;;;;;;;12.25;2.50;;;3.30;99.90;;;;;;5088834;28;20566;-55
2022/02/01 08:33:04;;;;;;;10.77;2.60;;;3.50;99.90;;;;;;5085110;28;20384;-55
2022/02/01 08:35:30;;;;;;;9.48;2.40;;;3.30;99.90;;;;;;5081539;28;20412;-54
2022/02/01 08:37:56;;;;;;;18.83;3.38;;;3.50;99.90;;;;;;5089025;28;20385;-54
2022/02/01 08:40:23;;;;;;;11.65;2.78;;;3.50;99.90;;;;;;5089648;28;20746;-54
2022/02/01 08:42:49;;;;;;;10.47;2.90;;;3.40;99.90;;;;;;5088406;28;20440;-55
2022/02/01 08:45:22;;;;;;;6.78;2.03;;;3.60;99.90;;;;;;5071284;28;20383;-54
2022/02/01 08:47:49;;;;;;;12.52;2.63;;;4.40;99.90;;;;;;5071301;28;20391;-55
2022/02/01 08:50:16;;;;;;;12.68;2.75;;;3.50;99.90;;;;;;5083133;28;20916;-55
2022/02/01 08:52:46;;;;;;;12.35;2.50;;;4.50;99.90;;;;;;5077267;28;20380;-55
2022/02/01 08:55:21;;;;;;;17.73;3.10;;;3.70;99.90;;;;;;5090144;28;20404;-54
2022/02/01 08:57:48;;;;;;;11.98;2.30;;;3.70;99.90;;;;;;5089441;28;20382;-55
2022/02/01 09:00:15;;;;;;;9.10;2.30;;;3.80;99.90;;;;;;5090297;28;20478;-54
2022/02/01 09:02:42;;;;;;;9.27;1.92;;;3.60;99.90;;;;;;5089850;28;20473;-55
2022/02/01 09:05:08;;;;;;;10.77;2.30;;;3.60;99.90;;;;;;5089338;28;20443;-54
2022/02/01 09:07:34;;;;;;;7.07;1.60;;;3.80;99.90;;;;;;5089568;28;20397;-54
2022/02/01 09:10:00;;;;;;;10.27;2.17;;;3.70;99.90;;;;;;5089283;28;21247;-54
2022/02/01 09:12:25;;;;;;;8.07;2.23;;;3.80;99.90;;;;;;5088584;28;20477;-54
2022/02/01 09:14:51;;;;;;;9.80;2.30;;;3.70;99.90;;;;;;5088872;28;20518;-54
2022/02/01 09:17:19;;;;;;;7.85;2.08;;;3.90;99.90;;;;;;5080687;28;20489;-54
2022/02/01 09:19:45;;;;;;;8.93;2.30;;;3.90;99.90;;;;;;5079022;28;20381;-55
2022/02/01 09:22:12;;;;;;;17.83;2.50;;;3.80;99.90;;;;;;5079938;28;20921;-54
2022/02/01 09:24:40;;;;;;;11.85;2.30;;;4.40;99.90;;;;;;5069836;28;20383;-54
2022/02/01 09:27:06;;;;;;;8.30;2.00;;;4.70;99.90;;;;;;5067978;28;20387;-54
2022/02/01 09:29:33;;;;;;;8.03;2.00;;;3.80;99.90;;;;;;5077068;28;20391;-54
2022/02/01 09:32:00;;;;;;;10.60;2.50;;;4.00;99.90;;;;;;5082761;28;20443;-55
2022/02/01 09:34:26;;;;;;;8.57;1.60;;;4.00;99.90;;;;;;5084139;28;20435;-54
2022/02/01 09:36:53;;;;;;;11.55;2.47;;;4.00;99.90;;;;;;5082148;28;20384;-55
2022/02/01 09:39:21;;;;;;;9.90;2.00;;;4.20;99.90;;;;;;5089797;28;20417;-54
2022/02/01 09:41:47;;;;;;;6.93;1.63;;;4.30;99.90;;;;;;5085921;28;20398;-55
2022/02/01 09:44:13;;;;;;;11.50;2.00;;;4.20;99.90;;;;;;5079304;28;20394;-54
2022/02/01 09:46:41;;;;;;;8.52;2.03;;;4.20;99.90;;;;;;5086589;28;20390;-55
2022/02/01 09:49:11;;;;;;;11.00;2.10;;;5.30;99.90;;;;;;5071768;28;20404;-54
2022/02/01 09:51:37;;;;;;;7.30;1.80;;;4.30;99.90;;;;;;5086170;28;20774;-54
2022/02/01 09:54:03;;;;;;;9.48;1.70;;;4.20;99.90;;;;;;5103242;28;20372;-54
2022/02/01 09:56:32;;;;;;;8.90;1.60;;;4.30;99.90;;;;;;5092416;28;20413;-54
2022/02/01 09:58:58;;;;;;;6.20;1.60;;;4.30;99.90;;;;;;5108927;28;20408;-55
2022/02/01 10:01:28;;;;;;;12.63;2.00;;;4.40;99.90;;;;;;5089938;28;20448;-55
2022/02/01 10:04:07;;;;;;;9.38;1.80;;;4.50;99.90;;;;;;5068020;28;20406;-55
2022/02/01 10:06:38;;;;;;;7.38;1.90;;;5.80;99.90;;;;;;5068638;28;20415;-55
2022/02/01 10:09:07;;;;;;;8.43;1.73;;;4.40;99.90;;;;;;5067873;28;20379;-55
2022/02/01 10:11:40;;;;;;;6.82;1.80;;;4.70;99.90;;;;;;5069059;28;20867;-55
2022/02/01 10:14:08;;;;;;;6.80;1.30;;;4.90;99.90;;;;;;5078203;28;20511;-55
2022/02/01 10:16:42;;;;;;;5.55;1.38;;;6.70;99.90;;;;;;5088451;28;20417;-55
2022/02/01 10:19:14;;;;;;;11.93;2.33;;;5.40;99.90;;;;;;5088517;28;20380;-55
2022/02/01 10:21:50;;;;;;;6.43;1.40;;;5.90;99.90;;;;;;5088864;28;20410;-55
2022/02/01 10:24:30;;;;;;;9.32;1.70;;;6.00;99.90;;;;;;5088596;28;20434;-55
2022/02/01 10:27:06;;;;;;;7.28;1.60;;;6.00;99.90;;;;;;5085267;28;20395;-55
2022/02/01 10:29:34;;;;;;;9.27;1.60;;;6.30;99.90;;;;;;5078724;28;20388;-55
2022/02/01 10:32:01;;;;;;;9.50;1.60;;;6.10;99.90;;;;;;5077242;28;20415;-55
2022/02/01 10:34:40;;;;;;;8.10;1.60;;;7.90;99.90;;;;;;5088143;28;20431;-59
2022/02/01 10:37:25;;;;;;;11.23;2.10;;;5.90;99.90;;;;;;5087994;28;20637;-55
2022/02/01 10:40:00;;;;;;;6.20;1.10;;;5.70;99.90;;;;;;5091242;28;20770;-55
2022/02/01 10:42:27;;;;;;;8.50;2.00;;;5.40;99.90;;;;;;5093177;28;20399;-55
2022/02/01 10:44:58;;;;;;;6.03;1.50;;;5.50;99.90;;;;;;5090662;28;20404;-55
2022/02/01 10:47:38;;;;;;;8.13;1.50;;;5.00;99.90;;;;;;5092548;28;20386;-55
2022/02/01 10:50:07;;;;;;;5.57;1.42;;;5.00;99.90;;;;;;5090692;28;20386;-55
2022/02/01 10:52:35;;;;;;;8.55;1.50;;;4.90;99.90;;;;;;5092543;28;20448;-55
2022/02/01 10:55:02;;;;;;;5.82;1.50;;;4.80;99.90;;;;;;5091869;28;20408;-55
2022/02/01 10:57:28;;;;;;;7.10;1.42;;;5.60;99.90;;;;;;5091283;28;20386;-55
2022/02/01 10:59:55;;;;;;;8.05;1.50;;;4.90;99.90;;;;;;5091522;28;20473;-55
2022/02/01 11:02:22;;;;;;;8.25;1.33;;;4.90;99.90;;;;;;5092587;28;20378;-55
2022/02/01 11:04:52;;;;;;;8.00;1.50;;;4.90;99.90;;;;;;5091340;28;20446;-55
2022/02/01 11:07:18;;;;;;;8.48;1.67;;;4.70;99.90;;;;;;5092874;28;20381;-55
2022/02/01 11:09:44;;;;;;;6.10;1.08;;;4.60;99.90;;;;;;5091744;28;20426;-56
2022/02/01 11:12:12;;;;;;;6.93;1.10;;;4.60;99.90;;;;;;5091508;28;20366;-55
2022/02/01 11:14:48;;;;;;;6.27;1.37;;;4.60;99.90;;;;;;5091999;28;20409;-55
2022/02/01 11:17:15;;;;;;;6.80;1.20;;;4.60;99.90;;;;;;5091915;28;20728;-55
2022/02/01 11:19:59;;;;;;;6.25;1.40;;;4.50;99.90;;;;;;5092124;28;20427;-55
2022/02/01 11:22:38;;;;;;;6.68;1.20;;;4.50;99.90;;;;;;5090654;28;20386;-55
2022/02/01 11:25:23;;;;;;;8.70;1.50;;;4.50;99.90;;;;;;5090772;28;21168;-55
2022/02/01 11:30:38;;;;;;;6.80;1.60;;;4.50;99.90;;;;;;5092050;28;20393;-55
2022/02/01 11:33:07;;;;;;;6.00;0.98;;;4.50;99.90;;;;;;5090950;28;20443;-55
2022/02/01 11:35:33;;;;;;;7.35;1.35;;;4.40;99.90;;;;;;5091843;28;20493;-55
2022/02/01 11:38:20;;;;;;;7.65;1.50;;;4.50;99.90;;;;;;5090821;28;20423;-55
2022/02/01 11:40:49;;;;;;;9.50;1.70;;;4.60;99.90;;;;;;5091062;28;20439;-56
2022/02/01 11:43:17;;;;;;;7.13;1.10;;;4.60;99.90;;;;;;5091524;28;20392;-55
2022/02/01 11:45:53;;;;;;;6.70;1.20;;;4.40;99.90;;;;;;5091688;28;20915;-55
2022/02/01 11:48:26;;;;;;;6.47;1.10;;;4.30;99.90;;;;;;5091676;28;20374;-55
2022/02/01 11:51:03;;;;;;;7.30;1.00;;;4.20;99.90;;;;;;5089442;28;20847;-55
2022/02/01 11:53:39;;;;;;;5.60;1.50;;;4.10;99.90;;;;;;5091392;28;20460;-55
2022/02/01 11:56:07;;;;;;;6.15;1.42;;;4.20;99.90;;;;;;5090541;28;20417;-55
2022/02/01 11:58:42;;;;;;;11.50;1.88;;;4.40;99.90;;;;;;5091266;28;20419;-55
2022/02/01 12:01:28;;;;;;;9.90;1.30;;;4.50;99.90;;;;;;5090289;28;21184;-55
2022/02/01 12:04:01;;;;;;;10.18;1.50;;;4.40;99.90;;;;;;5090330;28;20370;-55
2022/02/01 12:06:45;;;;;;;22.17;1.70;;;4.30;99.90;;;;;;5090759;28;20410;-55
2022/02/01 12:09:19;;;;;;;5.43;1.30;;;4.40;99.90;;;;;;5090648;28;20903;-55
2022/02/01 12:11:46;;;;;;;7.40;1.30;;;4.40;99.90;;;;;;5090705;28;20378;-55
2022/02/01 12:14:12;;;;;;;6.90;1.30;;;4.60;99.90;;;;;;5090296;28;20386;-55
2022/02/01 12:16:48;;;;;;;7.20;1.50;;;4.40;99.90;;;;;;5090402;28;20417;-55
2022/02/01 12:19:40;;;;;;;6.40;1.25;;;4.30;99.90;;;;;;5091260;28;20382;-55
2022/02/01 12:22:24;;;;;;;6.70;1.20;;;4.30;99.90;;;;;;5090291;28;20867;-55
2022/02/01 12:24:50;;;;;;;8.48;1.40;;;4.50;99.90;;;;;;5090060;28;20382;-55
2022/02/01 12:27:16;;;;;;;5.03;1.38;;;4.40;99.90;;;;;;5090639;28;20389;-55
2022/02/01 12:29:41;;;;;;;4.70;1.00;;;4.40;99.90;;;;;;5090860;28;20732;-55
2022/02/01 12:32:09;;;;;;;5.53;1.50;;;4.30;99.90;;;;;;5090177;28;20451;-55
2022/02/01 12:34:35;;;;;;;4.20;1.17;;;4.40;99.90;;;;;;5090271;28;20382;-55
2022/02/01 12:37:01;;;;;;;7.78;1.65;;;5.90;99.90;;;;;;5089699;28;20379;-55
2022/02/01 12:39:34;;;;;;;7.30;1.27;;;4.60;99.90;;;;;;5090685;28;20385;-55
2022/02/01 12:42:11;;;;;;;6.07;1.17;;;4.60;99.90;;;;;;5089493;28;20377;-55
2022/02/01 12:47:24;;;;;;;6.00;0.90;;;4.60;99.90;;;;;;5089839;28;20863;-55
2022/02/01 12:49:52;;;;;;;7.18;1.00;;;4.70;99.90;;;;;;5089773;28;20390;-56
2022/02/01 12:52:27;;;;;;;5.63;1.10;;;4.70;99.90;;;;;;5090213;28;20370;-55
2022/02/01 12:55:02;;;;;;;4.85;1.00;;;4.70;99.90;;;;;;5089419;28;20406;-55
2022/02/01 12:57:29;;;;;;;4.90;1.10;;;4.70;99.90;;;;;;5090241;28;20382;-55
2022/02/01 13:00:00;;;;;;;4.95;1.10;;;4.60;99.90;;;;;;5089507;28;20415;-55
2022/02/01 13:02:31;;;;;;;5.55;1.20;;;4.60;99.90;;;;;;5089979;28;20448;-55
2022/02/01 13:05:03;;;;;;;7.00;1.33;;;4.70;99.90;;;;;;5089085;28;20465;-55
2022/02/01 13:07:45;;;;;;;6.68;1.60;;;6.10;99.90;;;;;;5089572;28;20703;-55
2022/02/01 13:21:00;;;;;;;3.70;0.80;;;4.90;99.90;;;;;;5088695;28;20464;-55
2022/02/01 13:23:46;;;;;;;3.80;0.70;;;5.10;99.90;;;;;;5090041;28;20378;-55
2022/02/01 13:26:34;;;;;;;4.97;0.95;;;4.80;99.90;;;;;;5088692;28;20410;-55
2022/02/01 13:29:08;;;;;;;4.22;0.70;;;4.70;99.90;;;;;;5088796;28;20378;-55
2022/02/01 13:31:36;;;;;;;4.40;0.77;;;4.60;99.90;;;;;;5089951;28;20385;-55
2022/02/01 13:34:04;;;;;;;4.28;0.90;;;4.60;99.90;;;;;;5087513;28;20481;-55
2022/02/01 13:36:44;;;;;;;5.07;0.90;;;4.50;99.90;;;;;;5089625;28;20434;-55
2022/02/01 13:39:20;;;;;;;4.40;1.10;;;4.80;99.90;;;;;;5089024;28;20948;-55
2022/02/01 13:41:58;;;;;;;4.72;1.17;;;4.80;99.90;;;;;;5089896;28;20859;-55
2022/02/01 13:44:24;;;;;;;4.60;0.93;;;4.50;99.90;;;;;;5089626;28;20397;-55
2022/02/01 13:47:03;;;;;;;5.40;1.00;;;5.20;99.90;;;;;;5089183;28;20393;-56
2022/02/01 13:49:29;;;;;;;4.80;1.00;;;4.60;99.90;;;;;;5089380;28;20451;-55
2022/02/01 13:51:55;;;;;;;5.00;1.10;;;4.80;99.90;;;;;;5088936;28;20378;-55
2022/02/01 13:54:22;;;;;;;4.18;0.90;;;4.60;99.90;;;;;;5089465;28;20374;-55
2022/02/01 13:56:51;;;;;;;4.95;1.25;;;4.50;99.90;;;;;;5089480;28;20386;-56
2022/02/01 13:59:27;;;;;;;5.13;1.20;;;5.60;99.90;;;;;;5089394;28;20847;-55
2022/02/01 14:02:07;;;;;;;5.65;1.20;;;5.60;99.90;;;;;;5088763;28;20378;-56
2022/02/01 14:04:46;;;;;;;5.40;1.10;;;3.80;99.90;;;;;;5089739;28;20439;-55
2022/02/01 14:07:20;;;;;;;5.25;1.30;;;4.30;99.90;;;;;;5088992;28;20382;-55
2022/02/01 14:28:52;;;;;;;4.28;1.30;;;4.10;99.90;;;;;;5080965;28;20539;-55
2022/02/01 14:34:18;;;;;;;5.35;1.20;;;3.90;99.90;;;;;;5092235;28;20366;-56
2022/02/01 14:36:46;;;;;;;6.50;1.50;;;3.90;99.90;;;;;;5093090;28;21002;-55
2022/02/01 14:39:28;;;;;;;4.20;1.20;;;3.90;99.90;;;;;;5091184;28;20417;-55
2022/02/01 14:44:46;;;;;;;5.60;1.20;;;3.90;99.90;;;;;;5092519;28;20461;-55
2022/02/01 14:47:20;;;;;;;5.35;1.70;;;3.70;99.90;;;;;;5091972;28;20400;-55
2022/02/01 14:49:47;;;;;;;4.60;1.40;;;3.60;99.90;;;;;;5092950;28;20378;-55
2022/02/01 14:52:14;;;;;;;7.35;1.50;;;4.90;99.90;;;;;;5091945;28;20381;-55
2022/02/01 14:54:50;;;;;;;6.75;1.98;;;3.60;99.90;;;;;;5092431;28;20754;-55
2022/02/01 15:13:34;;;;;;;5.00;1.60;;;3.20;99.90;;;;;;5091955;28;20468;-55
2022/02/01 15:16:00;;;;;;;4.00;1.40;;;3.20;99.90;;;;;;5091172;28;20890;-53
2022/02/01 15:18:25;;;;;;;6.40;1.80;;;4.30;99.90;;;;;;5091758;28;20410;-55
2022/02/01 15:20:52;;;;;;;7.30;1.60;;;3.20;99.90;;;;;;5091607;28;20366;-55